createdAt,value
2019-05-23T00:02:49.061Z,100270.01
2019-05-23T00:05:53.820Z,100276.83
2019-05-23T00:08:26.833Z,100267.73
2019-05-23T00:11:01.935Z,100282.23
2019-05-23T00:13:49.117Z,100281.23
2019-05-23T00:16:23.505Z,100278.61
2019-05-23T00:18:53.936Z,100281.11
2019-05-23T00:21:24.028Z,100284.59
2019-05-23T00:23:54.652Z,100280.42
2019-05-23T00:26:26.188Z,100299.08
2019-05-23T00:29:09.087Z,100294.93
2019-05-23T00:31:35.621Z,100294.64
2019-05-23T00:34:09.932Z,100291.34
2019-05-23T00:36:40.201Z,100286.72
2019-05-23T00:39:14.659Z,100301.46
2019-05-23T00:41:44.826Z,100302.70
2019-05-23T00:44:17.504Z,100300.33
2019-05-23T00:46:47.440Z,100298.64
2019-05-23T00:49:18.605Z,100297.45
2019-05-23T00:51:48.664Z,100300.89
2019-05-23T00:54:19.420Z,100304.11
2019-05-23T00:56:49.702Z,100294.28
2019-05-23T00:59:26.909Z,100303.62
2019-05-23T01:01:51.071Z,100305.66
2019-05-23T01:04:22.113Z,100311.56
2019-05-23T01:06:56.185Z,100326.27
2019-05-23T01:09:27.584Z,100325.92
2019-05-23T01:11:57.728Z,100320.02
2019-05-23T01:14:29.468Z,100306.78
2019-05-23T01:17:00.978Z,100307.27
2019-05-23T01:19:38.113Z,100315.19
2019-05-23T01:22:06.974Z,100322.88
2019-05-23T01:24:39.455Z,100332.18
2019-05-23T01:27:09.062Z,100330.67
2019-05-23T01:29:42.057Z,100329.13
2019-05-23T01:32:25.919Z,100324.19
2019-05-23T01:34:56.605Z,100322.77
2019-05-23T01:37:26.194Z,100328.59
2019-05-23T01:39:56.094Z,100331.75
2019-05-23T01:42:28.394Z,100333.02
2019-05-23T01:44:59.409Z,100338.70
2019-05-23T01:47:29.393Z,100339.66
2019-05-23T01:50:00.156Z,100347.66
2019-05-23T01:52:30.027Z,100348.69
2019-05-23T01:55:00.575Z,100346.39
2019-05-23T01:57:31.899Z,100357.59
2019-05-23T02:00:10.039Z,100372.16
2019-05-23T02:02:36.233Z,100386.64
2019-05-23T02:05:09.233Z,100398.09
2019-05-23T02:07:39.060Z,100395.62
2019-05-23T02:10:09.752Z,100401.44
2019-05-23T02:12:39.455Z,100384.39
2019-05-23T02:15:11.986Z,100346.45
2019-05-23T02:17:42.052Z,100332.70
2019-05-23T02:20:14.190Z,100323.66
2019-05-23T02:22:44.188Z,100340.41
2019-05-23T02:25:16.918Z,100330.19
2019-05-23T02:27:48.370Z,100330.89
2019-05-23T02:30:33.906Z,100323.03
2019-05-23T02:32:52.969Z,100338.87
2019-05-23T02:35:22.850Z,100349.36
2019-05-23T02:38:08.070Z,100352.07
2019-05-23T02:40:49.562Z,100355.18
2019-05-23T02:43:22.878Z,100344.41
2019-05-23T02:45:55.769Z,100350.24
2019-05-23T02:48:29.078Z,100362.55
2019-05-23T02:51:03.166Z,100352.78
2019-05-23T02:53:37.367Z,100356.59
2019-05-23T02:56:11.776Z,100356.08
2019-05-23T02:58:55.931Z,100353.67
2019-05-23T03:01:46.481Z,100361.30
2019-05-23T03:04:21.623Z,100356.24
2019-05-23T03:06:54.102Z,100358.30
2019-05-23T03:09:26.548Z,100366.44
2019-05-23T03:12:00.653Z,100366.50
2019-05-23T03:14:31.159Z,100358.24
2019-05-23T03:17:03.706Z,100359.89
2019-05-23T03:19:39.310Z,100355.87
2019-05-23T03:22:31.710Z,100359.16
2019-05-23T03:25:04.746Z,100351.75
2019-05-23T03:27:39.810Z,100360.77
2019-05-23T03:30:20.139Z,100354.69
2019-05-23T03:32:52.645Z,100354.29
2019-05-23T03:35:31.986Z,100365.47
2019-05-23T03:38:02.389Z,100362.48
2019-05-23T03:40:32.145Z,100363.52
2019-05-23T03:43:02.215Z,100366.41
2019-05-23T03:45:33.552Z,100369.20
2019-05-23T03:48:05.326Z,100365.69
2019-05-23T03:50:35.535Z,100361.36
2019-05-23T03:53:06.279Z,100363.73
2019-05-23T03:55:36.484Z,100358.27
2019-05-23T03:58:06.563Z,100349.55
2019-05-23T04:00:41.517Z,100344.19
2019-05-23T04:03:11.289Z,100345.94
2019-05-23T04:05:43.175Z,100349.23
2019-05-23T04:08:12.970Z,100353.89
2019-05-23T04:10:42.497Z,100356.98
2019-05-23T04:13:12.146Z,100364.23
2019-05-23T04:15:41.829Z,100368.16
2019-05-23T04:18:11.273Z,100363.31
2019-05-23T04:20:44.705Z,100369.09
2019-05-23T04:23:18.188Z,100373.01
2019-05-23T04:25:47.558Z,100371.45
2019-05-23T04:28:17.009Z,100380.33
2019-05-23T04:30:46.406Z,100378.44
2019-05-23T04:33:15.957Z,100380.91
2019-05-23T04:35:45.801Z,100384.42
2019-05-23T04:38:16.182Z,100387.92
2019-05-23T04:40:45.635Z,100396.69
2019-05-23T04:43:15.173Z,100405.25
2019-05-23T04:45:44.842Z,100417.94
2019-05-23T04:48:15.246Z,100413.70
2019-05-23T04:50:45.585Z,100408.03
2019-05-23T04:53:15.001Z,100395.25
2019-05-23T04:55:45.799Z,100399.82
2019-05-23T04:58:15.442Z,100406.02
2019-05-23T05:00:44.780Z,100404.39
2019-05-23T05:03:18.172Z,100408.00
2019-05-23T05:05:46.973Z,100411.78
2019-05-23T05:08:17.608Z,100432.40
2019-05-23T05:10:47.335Z,100435.59
2019-05-23T05:13:17.055Z,100445.42
2019-05-23T05:15:46.421Z,100446.87
2019-05-23T05:18:16.276Z,100446.05
2019-05-23T05:20:45.879Z,100439.66
2019-05-23T05:23:15.725Z,100448.73
2019-05-23T05:25:45.097Z,100441.72
2019-05-23T05:28:14.625Z,100441.92
2019-05-23T05:30:44.341Z,100446.05
2019-05-23T05:33:16.321Z,100449.55
2019-05-23T05:35:45.827Z,100450.06
2019-05-23T05:38:16.618Z,100448.52
2019-05-23T05:40:46.759Z,100453.88
2019-05-23T05:43:17.144Z,100454.29
2019-05-23T05:45:46.643Z,100456.31
2019-05-23T05:48:16.302Z,100461.51
2019-05-23T05:50:45.706Z,100454.50
2019-05-23T05:53:17.854Z,100458.31
2019-05-23T05:55:49.153Z,100458.00
2019-05-23T05:58:19.165Z,100465.84
2019-05-23T06:00:56.577Z,100468.94
2019-05-23T06:04:12.008Z,100472.42
2019-05-23T06:06:49.998Z,100484.91
2019-05-23T06:09:29.739Z,100495.52
2019-05-23T06:12:07.863Z,100496.84
2019-05-23T06:14:31.763Z,100496.53
2019-05-23T06:17:03.193Z,100487.84
2019-05-23T06:19:32.598Z,100490.31
2019-05-23T06:22:02.405Z,100481.06
2019-05-23T06:24:46.838Z,100466.20
2019-05-23T06:27:10.734Z,100464.97
2019-05-23T06:29:40.495Z,100458.16
2019-05-23T06:32:12.461Z,100464.56
2019-05-23T06:34:42.260Z,100462.19
2019-05-23T06:37:12.175Z,100461.88
2019-05-23T06:39:42.599Z,100455.58
2019-05-23T06:42:12.012Z,100458.16
2019-05-23T06:44:41.378Z,100450.84
2019-05-23T06:47:11.390Z,100463.11
2019-05-23T06:49:41.005Z,100459.41
2019-05-23T06:52:10.629Z,100460.13
2019-05-23T06:54:40.004Z,100457.55
2019-05-23T06:57:09.801Z,100458.78
2019-05-23T06:59:39.221Z,100459.88
2019-05-23T07:02:08.698Z,100457.47
2019-05-23T07:04:40.758Z,100468.70
2019-05-23T07:07:10.677Z,100468.46
2019-05-23T07:09:41.676Z,100467.37
2019-05-23T07:12:11.100Z,100461.31
2019-05-23T07:14:40.593Z,100461.79
2019-05-23T07:17:10.826Z,100463.72
2019-05-23T07:19:40.241Z,100466.09
2019-05-23T07:22:10.485Z,100473.23
2019-05-23T07:24:56.915Z,100474.29
2019-05-23T07:27:11.657Z,100484.61
2019-05-23T07:29:41.060Z,100482.97
2019-05-23T07:32:10.813Z,100483.45
2019-05-23T07:34:40.265Z,100477.55
2019-05-23T07:37:09.798Z,100471.78
2019-05-23T07:39:39.197Z,100476.24
2019-05-23T07:42:10.490Z,100475.94
2019-05-23T07:44:48.430Z,100470.78
2019-05-23T07:47:12.864Z,100462.70
2019-05-23T07:49:43.085Z,100461.78
2019-05-23T07:52:12.778Z,100471.16
2019-05-23T07:54:56.824Z,100467.92
2019-05-23T07:57:26.506Z,100465.02
2019-05-23T08:00:05.184Z,100467.20
2019-05-23T08:02:40.703Z,100459.84
2019-05-23T08:05:13.618Z,100457.81
2019-05-23T08:07:43.256Z,100455.82
2019-05-23T08:10:12.746Z,100451.65
2019-05-23T08:12:43.017Z,100458.59
2019-05-23T08:15:12.786Z,100447.80
2019-05-23T08:17:42.564Z,100449.50
2019-05-23T08:20:12.848Z,100457.30
2019-05-23T08:22:42.280Z,100452.67
2019-05-23T08:25:11.803Z,100449.22
2019-05-23T08:27:41.890Z,100459.03
2019-05-23T08:30:13.214Z,100460.70
2019-05-23T08:32:42.985Z,100459.09
2019-05-23T08:35:17.375Z,100462.34
2019-05-23T08:37:43.905Z,100462.28
2019-05-23T08:40:15.243Z,100461.72
2019-05-23T08:42:47.479Z,100460.30
2019-05-23T08:45:17.715Z,100461.53
2019-05-23T08:47:47.134Z,100466.59
2019-05-23T08:50:17.130Z,100462.24
2019-05-23T08:52:46.505Z,100465.04
2019-05-23T08:55:26.512Z,100475.08
2019-05-23T08:57:56.658Z,100478.78
2019-05-23T09:00:28.030Z,100476.01
2019-05-23T09:02:59.330Z,100487.12
2019-05-23T09:05:32.950Z,100487.66
2019-05-23T09:08:03.002Z,100479.27
2019-05-23T09:10:32.944Z,100483.30
2019-05-23T09:13:02.327Z,100494.09
2019-05-23T09:15:31.985Z,100483.94
2019-05-23T09:18:02.088Z,100494.50
2019-05-23T09:20:31.943Z,100510.42
2019-05-23T09:23:01.707Z,100508.65
2019-05-23T09:25:33.911Z,100500.72
2019-05-23T09:28:03.539Z,100491.98
2019-05-23T09:30:34.688Z,100497.91
2019-05-23T09:33:05.763Z,100501.08
2019-05-23T09:35:36.109Z,100496.67
2019-05-23T09:38:05.904Z,100500.32
2019-05-23T09:40:35.452Z,100495.45
2019-05-23T09:43:07.232Z,100495.62
2019-05-23T09:45:37.388Z,100503.78
2019-05-23T09:48:07.572Z,100502.20
2019-05-23T09:50:37.385Z,100494.09
2019-05-23T09:53:07.196Z,100492.11
2019-05-23T09:55:37.375Z,100503.47
2019-05-23T09:58:06.880Z,100498.02
2019-05-23T10:00:37.258Z,100496.60
2019-05-23T10:03:07.154Z,100495.37
2019-05-23T10:05:43.334Z,100492.25
2019-05-23T10:08:09.259Z,100493.91
2019-05-23T10:10:38.701Z,100499.38
2019-05-23T10:13:09.331Z,100489.80
2019-05-23T10:16:02.859Z,100499.89
2019-05-23T10:18:32.541Z,100509.23
2019-05-23T10:21:04.292Z,100508.41
2019-05-23T10:23:34.676Z,100506.03
2019-05-23T10:26:05.202Z,100511.13
2019-05-23T10:28:34.786Z,100505.63
2019-05-23T10:31:06.036Z,100505.38
2019-05-23T10:33:35.956Z,100503.95
2019-05-23T10:36:05.609Z,100506.95
2019-05-23T10:38:35.237Z,100514.72
2019-05-23T10:41:05.123Z,100508.97
2019-05-23T10:43:34.537Z,100514.98
2019-05-23T10:46:04.043Z,100516.75
2019-05-23T10:48:35.832Z,100514.95
2019-05-23T10:51:05.381Z,100503.09
2019-05-23T10:53:35.159Z,100508.09
2019-05-23T10:56:04.867Z,100513.98
2019-05-23T10:58:35.319Z,100512.59
2019-05-23T11:01:05.356Z,100508.61
2019-05-23T11:03:37.256Z,100509.42
2019-05-23T11:06:16.091Z,100506.66
2019-05-23T11:08:40.191Z,100519.41
2019-05-23T11:11:13.938Z,100513.20
2019-05-23T11:13:44.605Z,100514.13
2019-05-23T11:16:14.691Z,100516.59
2019-05-23T11:18:44.200Z,100511.19
2019-05-23T11:21:13.665Z,100525.24
2019-05-23T11:23:48.225Z,100519.20
2019-05-23T11:26:17.911Z,100514.66
2019-05-23T11:28:47.748Z,100520.47
2019-05-23T11:31:17.921Z,100526.78
2019-05-23T11:33:47.720Z,100526.72
2019-05-23T11:36:33.686Z,100526.36
2019-05-23T11:38:48.591Z,100524.18
2019-05-23T11:41:18.184Z,100531.58
2019-05-23T11:43:47.546Z,100527.78
2019-05-23T11:46:21.783Z,100518.00
2019-05-23T11:48:51.846Z,100517.35
2019-05-23T11:51:25.117Z,100524.41
2019-05-23T11:54:06.507Z,100523.11
2019-05-23T11:56:24.304Z,100539.41
2019-05-23T11:58:53.726Z,100526.88
2019-05-23T12:01:44.913Z,100520.16
2019-05-23T12:04:22.178Z,100525.45
2019-05-23T12:07:10.862Z,100516.56
2019-05-23T12:09:40.477Z,100515.50
2019-05-23T12:12:09.992Z,100511.34
2019-05-23T12:14:41.441Z,100512.16
2019-05-23T12:17:11.962Z,100520.56
2019-05-23T12:19:41.842Z,100519.95
2019-05-23T12:22:12.380Z,100513.05
2019-05-23T12:24:41.971Z,100515.98
2019-05-23T12:27:12.078Z,100508.22
2019-05-23T12:29:41.502Z,100504.67
2019-05-23T12:32:12.709Z,100509.81
2019-05-23T12:34:42.175Z,100513.34
2019-05-23T12:37:18.918Z,100511.98
2019-05-23T12:39:43.241Z,100511.44
2019-05-23T12:42:12.673Z,100510.56
2019-05-23T12:44:42.126Z,100510.53
2019-05-23T12:47:25.351Z,100502.41
2019-05-23T12:50:00.511Z,100506.58
2019-05-23T12:52:35.601Z,100500.30
2019-05-23T12:55:06.260Z,100503.48
2019-05-23T12:57:35.733Z,100492.25
2019-05-23T13:00:08.184Z,100496.41
2019-05-23T13:02:37.718Z,100494.64
2019-05-23T13:05:09.269Z,100483.61
2019-05-23T13:07:39.590Z,100496.87
2019-05-23T13:10:09.683Z,100496.66
2019-05-23T13:12:39.415Z,100487.05
2019-05-23T13:15:09.234Z,100484.05
2019-05-23T13:17:38.715Z,100483.15
2019-05-23T13:20:09.036Z,100486.44
2019-05-23T13:22:38.978Z,100482.28
2019-05-23T13:25:08.563Z,100480.63
2019-05-23T13:27:38.531Z,100483.55
2019-05-23T13:30:09.044Z,100481.04
2019-05-23T13:32:38.755Z,100473.64
2019-05-23T13:35:08.729Z,100475.69
2019-05-23T13:37:52.403Z,100466.83
2019-05-23T13:40:11.326Z,100471.56
2019-05-23T13:42:40.713Z,100469.58
2019-05-23T13:45:10.717Z,100475.83
2019-05-23T13:47:40.097Z,100469.23
2019-05-23T13:50:10.294Z,100463.48
2019-05-23T13:52:40.758Z,100469.03
2019-05-23T13:55:12.503Z,100469.45
2019-05-23T13:57:41.943Z,100461.39
2019-05-23T14:00:14.984Z,100462.54
2019-05-23T14:02:44.497Z,100452.52
2019-05-23T14:05:18.751Z,100452.38
2019-05-23T14:08:12.230Z,100455.58
2019-05-23T14:10:35.276Z,100461.86
2019-05-23T14:13:05.103Z,100455.30
2019-05-23T14:15:39.748Z,100454.83
2019-05-23T14:18:12.681Z,100455.57
2019-05-23T14:20:42.295Z,100458.16
2019-05-23T14:23:30.758Z,100462.76
2019-05-23T14:26:11.048Z,100465.01
2019-05-23T14:28:41.808Z,100455.73
2019-05-23T14:31:23.775Z,100457.95
2019-05-23T14:33:55.703Z,100460.17
2019-05-23T14:36:56.258Z,100456.72
2019-05-23T14:39:39.690Z,100449.73
2019-05-23T14:42:28.841Z,100458.76
2019-05-23T14:44:58.721Z,100451.84
2019-05-23T14:47:56.242Z,100451.69
2019-05-23T14:50:46.468Z,100455.66
2019-05-23T14:53:19.070Z,100450.45
2019-05-23T14:55:50.459Z,100456.40
2019-05-23T14:58:21.273Z,100455.16
2019-05-23T15:00:50.763Z,100456.75
2019-05-23T15:03:20.533Z,100447.27
2019-05-23T15:05:50.061Z,100445.59
2019-05-23T15:08:22.887Z,100448.30
2019-05-23T15:10:53.545Z,100443.09
2019-05-23T15:13:23.021Z,100436.56
2019-05-23T15:15:52.441Z,100443.13
2019-05-23T15:18:21.895Z,100439.42
2019-05-23T15:20:51.328Z,100431.38
2019-05-23T15:23:20.705Z,100436.25
2019-05-23T15:25:50.151Z,100433.25
2019-05-23T15:28:19.500Z,100435.52
2019-05-23T15:30:48.958Z,100422.90
2019-05-23T15:33:18.376Z,100420.30
2019-05-23T15:35:48.815Z,100411.25
2019-05-23T15:38:18.294Z,100411.05
2019-05-23T15:40:47.778Z,100410.72
2019-05-23T15:43:17.165Z,100414.43
2019-05-23T15:45:46.767Z,100406.87
2019-05-23T15:48:16.174Z,100408.70
2019-05-23T15:50:49.889Z,100406.52
2019-05-23T15:53:40.130Z,100408.02
2019-05-23T15:56:31.053Z,100402.68
2019-05-23T15:59:18.100Z,100402.80
2019-05-23T16:01:57.897Z,100396.59
2019-05-23T16:04:27.713Z,100401.78
2019-05-23T16:06:57.310Z,100395.36
2019-05-23T16:09:30.182Z,100400.51
2019-05-23T16:11:58.668Z,100400.86
2019-05-23T16:14:29.355Z,100390.61
2019-05-23T16:16:59.109Z,100388.81
2019-05-23T16:19:28.563Z,100391.25
2019-05-23T16:21:58.131Z,100390.70
2019-05-23T16:24:28.032Z,100387.53
2019-05-23T16:26:57.454Z,100383.76
2019-05-23T16:29:27.447Z,100384.63
2019-05-23T16:31:57.020Z,100385.14
2019-05-23T16:34:26.803Z,100384.33
2019-05-23T16:36:56.273Z,100387.81
2019-05-23T16:39:25.916Z,100381.00
2019-05-23T16:41:55.926Z,100381.41
2019-05-23T16:44:30.441Z,100381.29
2019-05-23T16:47:00.087Z,100379.34
2019-05-23T16:49:32.581Z,100376.38
2019-05-23T16:52:03.925Z,100377.55
2019-05-23T16:54:40.000Z,100383.76
2019-05-23T16:57:36.861Z,100380.72
2019-05-23T17:00:34.580Z,100378.02
2019-05-23T17:03:12.660Z,100369.84
2019-05-23T17:06:00.370Z,100368.45
2019-05-23T17:08:50.185Z,100377.16
2019-05-23T17:11:37.881Z,100367.98
2019-05-23T17:14:12.788Z,100373.10
2019-05-23T17:17:06.627Z,100376.41
2019-05-23T17:20:01.289Z,100375.53
2019-05-23T17:22:49.326Z,100374.66
2019-05-23T17:25:46.958Z,100378.17
2019-05-23T17:28:24.114Z,100385.67
2019-05-23T17:31:05.876Z,100388.53
2019-05-23T17:33:37.164Z,100387.03
2019-05-23T17:36:08.508Z,100383.77
2019-05-23T17:38:37.995Z,100386.02
2019-05-23T17:41:09.452Z,100384.77
2019-05-23T17:43:39.115Z,100384.81
2019-05-23T17:46:08.614Z,100381.87
2019-05-23T17:48:38.250Z,100372.66
2019-05-23T17:51:10.185Z,100374.60
2019-05-23T17:53:39.615Z,100367.75
2019-05-23T17:56:11.946Z,100374.55
2019-05-23T17:58:41.954Z,100369.33
2019-05-23T18:01:11.421Z,100369.04
2019-05-23T18:03:40.915Z,100367.38
2019-05-23T18:06:10.762Z,100369.75
2019-05-23T18:08:42.872Z,100374.84
2019-05-23T18:11:12.836Z,100368.00
2019-05-23T18:13:43.747Z,100367.65
2019-05-23T18:16:14.047Z,100365.95
2019-05-23T18:18:44.503Z,100360.72
2019-05-23T18:21:14.090Z,100365.24
2019-05-23T18:23:43.523Z,100367.56
2019-05-23T18:26:12.967Z,100358.23
2019-05-23T18:28:43.160Z,100360.28
2019-05-23T18:31:17.018Z,100362.91
2019-05-23T18:33:46.573Z,100370.89
2019-05-23T18:36:16.135Z,100367.24
2019-05-23T18:38:45.804Z,100363.30
2019-05-23T18:41:15.520Z,100363.66
2019-05-23T18:43:45.418Z,100360.81
2019-05-23T18:46:20.379Z,100358.59
2019-05-23T18:48:49.906Z,100362.91
2019-05-23T18:51:19.443Z,100357.42
2019-05-23T18:53:49.534Z,100360.09
2019-05-23T18:56:19.016Z,100358.61
2019-05-23T18:58:49.090Z,100369.28
2019-05-23T19:01:25.073Z,100367.52
2019-05-23T19:04:02.290Z,100361.19
2019-05-23T19:06:31.824Z,100362.38
2019-05-23T19:09:01.447Z,100360.16
2019-05-23T19:11:31.887Z,100361.34
2019-05-23T19:14:01.638Z,100365.58
2019-05-23T19:16:32.829Z,100368.95
2019-05-23T19:19:04.064Z,100366.11
2019-05-23T19:21:34.445Z,100361.66
2019-05-23T19:24:09.168Z,100366.92
2019-05-23T19:26:39.083Z,100369.70
2019-05-23T19:29:09.243Z,100374.70
2019-05-23T19:31:39.419Z,100372.95
2019-05-23T19:34:09.270Z,100376.83
2019-05-23T19:36:39.311Z,100375.80
2019-05-23T19:39:08.948Z,100375.84
2019-05-23T19:41:38.808Z,100374.33
2019-05-23T19:44:08.479Z,100367.98
2019-05-23T19:46:38.270Z,100369.72
2019-05-23T19:49:08.592Z,100371.13
2019-05-23T19:51:41.768Z,100365.30
2019-05-23T19:54:11.621Z,100372.19
2019-05-23T19:56:41.198Z,100366.78
2019-05-23T19:59:10.683Z,100365.23
2019-05-23T20:02:11.253Z,100369.58
2019-05-23T20:04:43.901Z,100373.73
2019-05-23T20:07:15.478Z,100364.34
2019-05-23T20:09:44.807Z,100363.12
2019-05-23T20:12:15.511Z,100364.56
2019-05-23T20:14:44.897Z,100360.59
2019-05-23T20:17:14.717Z,100358.22
2019-05-23T20:19:44.243Z,100354.00
2019-05-23T20:22:13.794Z,100363.00
2019-05-23T20:24:43.263Z,100353.77
2019-05-23T20:27:14.497Z,100357.59
2019-05-23T20:29:43.865Z,100358.84
2019-05-23T20:32:13.447Z,100358.70
2019-05-23T20:34:42.892Z,100361.02
2019-05-23T20:37:12.362Z,100366.37
2019-05-23T20:39:41.718Z,100368.69
2019-05-23T20:42:12.255Z,100370.19
2019-05-23T20:44:41.794Z,100377.15
2019-05-23T20:47:11.648Z,100374.91
2019-05-23T20:49:41.138Z,100379.13
2019-05-23T20:52:10.578Z,100380.10
2019-05-23T20:54:40.144Z,100383.70
2019-05-23T20:57:09.692Z,100386.27
2019-05-23T20:59:39.182Z,100380.73
2019-05-23T21:02:08.704Z,100384.09
2019-05-23T21:04:38.280Z,100377.21
2019-05-23T21:07:07.667Z,100382.31
2019-05-23T21:09:37.222Z,100376.48
2019-05-23T21:12:07.844Z,100380.39
2019-05-23T21:14:37.830Z,100378.44
2019-05-23T21:17:07.561Z,100382.17
2019-05-23T21:19:37.143Z,100380.61
2019-05-23T21:22:06.789Z,100371.48
2019-05-23T21:24:36.475Z,100372.06
2019-05-23T21:27:05.913Z,100370.05
2019-05-23T21:29:35.606Z,100369.60
2019-05-23T21:32:05.191Z,100364.90
2019-05-23T21:34:34.785Z,100370.41
2019-05-23T21:37:04.400Z,100364.88
2019-05-23T21:39:34.246Z,100361.44
2019-05-23T21:42:04.319Z,100363.13
2019-05-23T21:44:35.835Z,100355.87
2019-05-23T21:47:05.654Z,100343.27
2019-05-23T21:49:35.215Z,100347.30
2019-05-23T21:52:05.311Z,100355.87
2019-05-23T21:54:34.746Z,100349.40
2019-05-23T21:57:04.196Z,100344.98
2019-05-23T21:59:33.674Z,100345.21
2019-05-23T22:02:34.750Z,100343.79
2019-05-23T22:05:17.719Z,100339.98
2019-05-23T22:07:47.727Z,100330.86
2019-05-23T22:10:17.074Z,100338.33
2019-05-23T22:13:01.834Z,100339.90
2019-05-23T22:15:34.835Z,100342.30
2019-05-23T22:18:04.589Z,100335.30
2019-05-23T22:20:36.939Z,100327.45
2019-05-23T22:23:06.708Z,100332.75
2019-05-23T22:25:36.321Z,100336.27
2019-05-23T22:28:05.731Z,100330.28
2019-05-23T22:30:35.283Z,100331.63
2019-05-23T22:33:05.752Z,100324.00
2019-05-23T22:35:35.598Z,100323.92
2019-05-23T22:38:05.635Z,100321.19
2019-05-23T22:40:38.772Z,100319.55
2019-05-23T22:43:20.751Z,100324.33
2019-05-23T22:45:41.139Z,100319.69
2019-05-23T22:48:10.559Z,100322.30
2019-05-23T22:50:40.064Z,100317.15
2019-05-23T22:53:09.452Z,100306.27
2019-05-23T22:55:38.928Z,100308.05
2019-05-23T22:58:08.405Z,100310.97
2019-05-23T23:00:39.809Z,100305.66
2019-05-23T23:03:09.278Z,100310.98
2019-05-23T23:05:38.738Z,100307.47
2019-05-23T23:08:08.376Z,100305.83
2019-05-23T23:10:37.907Z,100303.06
2019-05-23T23:13:07.487Z,100303.42
2019-05-23T23:15:38.762Z,100302.98
2019-05-23T23:18:08.516Z,100305.22
2019-05-23T23:20:38.110Z,100299.41
2019-05-23T23:23:07.579Z,100297.38
2019-05-23T23:25:41.465Z,100302.45
2019-05-23T23:28:10.857Z,100296.17
2019-05-23T23:30:42.090Z,100296.26
2019-05-23T23:33:11.480Z,100294.83
2019-05-23T23:35:40.877Z,100295.05
2019-05-23T23:38:10.515Z,100296.61
2019-05-23T23:40:40.130Z,100293.10
2019-05-23T23:43:09.597Z,100286.03
2019-05-23T23:46:06.282Z,100286.33
2019-05-23T23:48:54.739Z,100285.95
2019-05-23T23:51:41.721Z,100279.06
2019-05-23T23:54:29.139Z,100283.48
2019-05-23T23:57:16.604Z,100286.27
2019-05-23T23:59:45.003Z,100279.98
